sensor_id;sensor_type;location;lat;lon;timestamp;temperature;humidity
75088;HTU21D;63664;44.868;40.600;2023-04-15T00:00:39;10.69;70.55
75088;HTU21D;63664;44.868;40.600;2023-04-15T00:03:05;10.66;70.63
75088;HTU21D;63664;44.868;40.600;2023-04-15T00:05:32;10.66;70.71
75088;HTU21D;63664;44.868;40.600;2023-04-15T00:07:58;10.67;70.81
75088;HTU21D;63664;44.868;40.600;2023-04-15T00:10:25;10.63;70.94
75088;HTU21D;63664;44.868;40.600;2023-04-15T00:12:51;10.64;71.02
75088;HTU21D;63664;44.868;40.600;2023-04-15T00:15:18;10.63;71.14
75088;HTU21D;63664;44.868;40.600;2023-04-15T00:17:44;10.60;71.24
75088;HTU21D;63664;44.868;40.600;2023-04-15T00:20:11;10.60;71.36
75088;HTU21D;63664;44.868;40.600;2023-04-15T00:22:37;10.60;71.50
75088;HTU21D;63664;44.868;40.600;2023-04-15T00:25:04;10.59;71.72
75088;HTU21D;63664;44.868;40.600;2023-04-15T00:27:30;10.58;71.88
75088;HTU21D;63664;44.868;40.600;2023-04-15T00:29:57;10.57;72.06
75088;HTU21D;63664;44.868;40.600;2023-04-15T00:32:23;10.53;72.22
75088;HTU21D;63664;44.868;40.600;2023-04-15T00:34:49;10.53;72.39
75088;HTU21D;63664;44.868;40.600;2023-04-15T00:37:16;10.52;72.56
75088;HTU21D;63664;44.868;40.600;2023-04-15T00:39:42;10.51;72.64
75088;HTU21D;63664;44.868;40.600;2023-04-15T00:42:10;10.49;72.73
75088;HTU21D;63664;44.868;40.600;2023-04-15T00:44:37;10.46;72.84
75088;HTU21D;63664;44.868;40.600;2023-04-15T00:47:03;10.43;72.98
75088;HTU21D;63664;44.868;40.600;2023-04-15T00:49:31;10.40;73.08
75088;HTU21D;63664;44.868;40.600;2023-04-15T00:51:58;10.37;73.15
75088;HTU21D;63664;44.868;40.600;2023-04-15T00:54:24;10.36;73.30
75088;HTU21D;63664;44.868;40.600;2023-04-15T00:56:51;10.31;73.43
75088;HTU21D;63664;44.868;40.600;2023-04-15T00:59:18;10.30;73.57
75088;HTU21D;63664;44.868;40.600;2023-04-15T01:01:45;10.29;73.71
75088;HTU21D;63664;44.868;40.600;2023-04-15T01:04:12;10.25;73.90
75088;HTU21D;63664;44.868;40.600;2023-04-15T01:06:40;10.23;74.06
75088;HTU21D;63664;44.868;40.600;2023-04-15T01:09:06;10.19;74.26
75088;HTU21D;63664;44.868;40.600;2023-04-15T01:11:33;10.18;74.45
75088;HTU21D;63664;44.868;40.600;2023-04-15T01:14:00;10.14;74.63
75088;HTU21D;63664;44.868;40.600;2023-04-15T01:16:28;10.11;74.78
75088;HTU21D;63664;44.868;40.600;2023-04-15T01:18:54;10.11;74.92
75088;HTU21D;63664;44.868;40.600;2023-04-15T01:21:22;10.10;75.05
75088;HTU21D;63664;44.868;40.600;2023-04-15T01:23:50;10.09;75.15
75088;HTU21D;63664;44.868;40.600;2023-04-15T01:26:18;10.08;75.20
75088;HTU21D;63664;44.868;40.600;2023-04-15T01:28:45;10.07;75.27
75088;HTU21D;63664;44.868;40.600;2023-04-15T01:31:13;10.07;75.38
75088;HTU21D;63664;44.868;40.600;2023-04-15T01:33:41;10.05;75.46
75088;HTU21D;63664;44.868;40.600;2023-04-15T01:36:09;10.04;75.61
75088;HTU21D;63664;44.868;40.600;2023-04-15T01:38:37;10.05;75.73
75088;HTU21D;63664;44.868;40.600;2023-04-15T01:41:03;10.05;75.86
75088;HTU21D;63664;44.868;40.600;2023-04-15T01:43:35;10.04;75.99
75088;HTU21D;63664;44.868;40.600;2023-04-15T01:46:02;10.03;76.05
75088;HTU21D;63664;44.868;40.600;2023-04-15T01:48:31;10.01;76.15
75088;HTU21D;63664;44.868;40.600;2023-04-15T01:50:58;9.99;76.28
75088;HTU21D;63664;44.868;40.600;2023-04-15T01:53:25;9.98;76.47
75088;HTU21D;63664;44.868;40.600;2023-04-15T01:55:51;9.97;76.61
75088;HTU21D;63664;44.868;40.600;2023-04-15T01:58:18;9.96;76.70
75088;HTU21D;63664;44.868;40.600;2023-04-15T02:00:44;9.93;76.84
75088;HTU21D;63664;44.868;40.600;2023-04-15T02:03:11;9.89;77.05
75088;HTU21D;63664;44.868;40.600;2023-04-15T02:05:37;9.86;77.21
75088;HTU21D;63664;44.868;40.600;2023-04-15T02:08:03;9.84;77.34
75088;HTU21D;63664;44.868;40.600;2023-04-15T02:10:30;9.80;77.47
75088;HTU21D;63664;44.868;40.600;2023-04-15T02:12:56;9.77;77.66
75088;HTU21D;63664;44.868;40.600;2023-04-15T02:15:27;9.76;77.75
75088;HTU21D;63664;44.868;40.600;2023-04-15T02:17:53;9.72;77.87
75088;HTU21D;63664;44.868;40.600;2023-04-15T02:20:20;9.71;78.01
75088;HTU21D;63664;44.868;40.600;2023-04-15T02:22:48;9.68;78.14
75088;HTU21D;63664;44.868;40.600;2023-04-15T02:25:14;9.65;78.24
75088;HTU21D;63664;44.868;40.600;2023-04-15T02:27:42;9.63;78.42
75088;HTU21D;63664;44.868;40.600;2023-04-15T02:30:11;9.61;78.53
75088;HTU21D;63664;44.868;40.600;2023-04-15T02:32:39;9.57;78.75
75088;HTU21D;63664;44.868;40.600;2023-04-15T02:35:07;9.56;78.95
75088;HTU21D;63664;44.868;40.600;2023-04-15T02:37:36;9.54;79.11
75088;HTU21D;63664;44.868;40.600;2023-04-15T02:40:10;9.52;78.90
75088;HTU21D;63664;44.868;40.600;2023-04-15T02:42:40;9.47;78.92
75088;HTU21D;63664;44.868;40.600;2023-04-15T02:45:11;9.38;79.32
75088;HTU21D;63664;44.868;40.600;2023-04-15T02:47:39;9.38;79.68
75088;HTU21D;63664;44.868;40.600;2023-04-15T02:50:11;9.37;80.04
75088;HTU21D;63664;44.868;40.600;2023-04-15T02:52:41;9.37;80.11
75088;HTU21D;63664;44.868;40.600;2023-04-15T02:55:08;9.34;80.25
75088;HTU21D;63664;44.868;40.600;2023-04-15T02:57:36;9.33;80.52
75088;HTU21D;63664;44.868;40.600;2023-04-15T03:00:07;9.33;80.76
75088;HTU21D;63664;44.868;40.600;2023-04-15T03:02:39;9.32;80.80
75088;HTU21D;63664;44.868;40.600;2023-04-15T03:05:13;9.29;80.94
75088;HTU21D;63664;44.868;40.600;2023-04-15T03:07:46;9.27;81.04
75088;HTU21D;63664;44.868;40.600;2023-04-15T03:10:12;9.27;81.30
75088;HTU21D;63664;44.868;40.600;2023-04-15T03:12:39;9.27;81.52
75088;HTU21D;63664;44.868;40.600;2023-04-15T03:15:12;9.29;81.69
75088;HTU21D;63664;44.868;40.600;2023-04-15T03:17:44;9.32;81.84
75088;HTU21D;63664;44.868;40.600;2023-04-15T03:20:12;9.34;81.98
75088;HTU21D;63664;44.868;40.600;2023-04-15T03:22:38;9.36;82.07
75088;HTU21D;63664;44.868;40.600;2023-04-15T03:25:04;9.37;82.16
75088;HTU21D;63664;44.868;40.600;2023-04-15T03:27:32;9.39;82.22
75088;HTU21D;63664;44.868;40.600;2023-04-15T03:30:01;9.41;82.33
75088;HTU21D;63664;44.868;40.600;2023-04-15T03:32:32;9.45;82.39
75088;HTU21D;63664;44.868;40.600;2023-04-15T03:34:58;9.48;82.55
75088;HTU21D;63664;44.868;40.600;2023-04-15T03:37:24;9.47;82.62
75088;HTU21D;63664;44.868;40.600;2023-04-15T03:39:51;9.50;82.67
75088;HTU21D;63664;44.868;40.600;2023-04-15T03:42:17;9.52;82.71
75088;HTU21D;63664;44.868;40.600;2023-04-15T03:44:44;9.54;82.79
75088;HTU21D;63664;44.868;40.600;2023-04-15T03:47:10;9.57;82.91
75088;HTU21D;63664;44.868;40.600;2023-04-15T03:49:36;9.61;83.04
75088;HTU21D;63664;44.868;40.600;2023-04-15T03:52:03;9.63;83.14
75088;HTU21D;63664;44.868;40.600;2023-04-15T03:54:30;9.67;83.16
75088;HTU21D;63664;44.868;40.600;2023-04-15T03:56:56;9.69;83.21
75088;HTU21D;63664;44.868;40.600;2023-04-15T03:59:23;9.72;83.26
75088;HTU21D;63664;44.868;40.600;2023-04-15T04:01:49;9.78;83.23
75088;HTU21D;63664;44.868;40.600;2023-04-15T04:04:15;9.83;83.25
75088;HTU21D;63664;44.868;40.600;2023-04-15T04:06:41;9.88;83.25
75088;HTU21D;63664;44.868;40.600;2023-04-15T04:09:08;9.90;83.26
75088;HTU21D;63664;44.868;40.600;2023-04-15T04:11:34;9.94;83.21
75088;HTU21D;63664;44.868;40.600;2023-04-15T04:14:00;9.98;83.18
75088;HTU21D;63664;44.868;40.600;2023-04-15T04:16:26;10.03;83.23
75088;HTU21D;63664;44.868;40.600;2023-04-15T04:18:53;10.06;83.20
75088;HTU21D;63664;44.868;40.600;2023-04-15T04:21:19;10.09;83.20
75088;HTU21D;63664;44.868;40.600;2023-04-15T04:23:46;10.14;83.13
75088;HTU21D;63664;44.868;40.600;2023-04-15T04:26:12;10.19;83.07
75088;HTU21D;63664;44.868;40.600;2023-04-15T04:28:39;10.23;82.93
75088;HTU21D;63664;44.868;40.600;2023-04-15T04:31:06;10.25;82.81
75088;HTU21D;63664;44.868;40.600;2023-04-15T04:33:32;10.28;82.76
75088;HTU21D;63664;44.868;40.600;2023-04-15T04:35:59;10.33;82.78
75088;HTU21D;63664;44.868;40.600;2023-04-15T04:38:25;10.39;82.74
75088;HTU21D;63664;44.868;40.600;2023-04-15T04:40:51;10.43;82.54
75088;HTU21D;63664;44.868;40.600;2023-04-15T04:43:17;10.46;82.49
75088;HTU21D;63664;44.868;40.600;2023-04-15T04:45:44;10.53;82.42
75088;HTU21D;63664;44.868;40.600;2023-04-15T04:48:10;10.58;82.36
75088;HTU21D;63664;44.868;40.600;2023-04-15T04:50:36;10.63;82.34
75088;HTU21D;63664;44.868;40.600;2023-04-15T04:53:03;10.69;82.30
75088;HTU21D;63664;44.868;40.600;2023-04-15T04:55:29;10.74;82.17
75088;HTU21D;63664;44.868;40.600;2023-04-15T04:57:56;10.79;82.01
75088;HTU21D;63664;44.868;40.600;2023-04-15T05:00:23;10.84;81.91
75088;HTU21D;63664;44.868;40.600;2023-04-15T05:02:49;10.89;81.87
75088;HTU21D;63664;44.868;40.600;2023-04-15T05:05:16;10.96;81.71
75088;HTU21D;63664;44.868;40.600;2023-04-15T05:07:42;11.01;81.62
75088;HTU21D;63664;44.868;40.600;2023-04-15T05:10:08;11.10;81.46
75088;HTU21D;63664;44.868;40.600;2023-04-15T05:12:35;11.15;81.32
75088;HTU21D;63664;44.868;40.600;2023-04-15T05:15:04;11.23;81.20
75088;HTU21D;63664;44.868;40.600;2023-04-15T05:17:31;11.30;81.14
75088;HTU21D;63664;44.868;40.600;2023-04-15T05:19:58;11.38;81.05
75088;HTU21D;63664;44.868;40.600;2023-04-15T05:22:24;11.44;80.91
75088;HTU21D;63664;44.868;40.600;2023-04-15T05:24:50;11.51;80.78
75088;HTU21D;63664;44.868;40.600;2023-04-15T05:27:17;11.58;80.78
75088;HTU21D;63664;44.868;40.600;2023-04-15T05:29:44;11.71;80.59
75088;HTU21D;63664;44.868;40.600;2023-04-15T05:32:10;11.81;80.30
75088;HTU21D;63664;44.868;40.600;2023-04-15T05:34:37;11.91;80.12
75088;HTU21D;63664;44.868;40.600;2023-04-15T05:37:03;12.03;79.98
75088;HTU21D;63664;44.868;40.600;2023-04-15T05:39:29;12.15;79.82
75088;HTU21D;63664;44.868;40.600;2023-04-15T05:41:57;12.25;79.61
75088;HTU21D;63664;44.868;40.600;2023-04-15T05:44:24;12.33;79.43
75088;HTU21D;63664;44.868;40.600;2023-04-15T05:46:52;12.38;79.24
75088;HTU21D;63664;44.868;40.600;2023-04-15T05:49:18;12.47;79.11
75088;HTU21D;63664;44.868;40.600;2023-04-15T05:51:46;12.58;78.88
75088;HTU21D;63664;44.868;40.600;2023-04-15T05:54:13;12.67;78.63
75088;HTU21D;63664;44.868;40.600;2023-04-15T05:56:42;12.81;78.29
75088;HTU21D;63664;44.868;40.600;2023-04-15T05:59:08;12.96;78.16
75088;HTU21D;63664;44.868;40.600;2023-04-15T06:01:35;13.10;77.70
75088;HTU21D;63664;44.868;40.600;2023-04-15T06:04:01;13.30;77.27
75088;HTU21D;63664;44.868;40.600;2023-04-15T06:06:27;13.45;76.95
75088;HTU21D;63664;44.868;40.600;2023-04-15T06:08:54;13.59;76.70
75088;HTU21D;63664;44.868;40.600;2023-04-15T06:11:20;13.71;76.39
75088;HTU21D;63664;44.868;40.600;2023-04-15T06:13:47;13.84;75.99
75088;HTU21D;63664;44.868;40.600;2023-04-15T06:16:13;13.93;75.67
75088;HTU21D;63664;44.868;40.600;2023-04-15T06:18:39;14.03;75.47
75088;HTU21D;63664;44.868;40.600;2023-04-15T06:21:06;14.08;75.05
75088;HTU21D;63664;44.868;40.600;2023-04-15T06:23:35;14.18;74.83
75088;HTU21D;63664;44.868;40.600;2023-04-15T06:26:02;14.30;74.49
75088;HTU21D;63664;44.868;40.600;2023-04-15T06:28:28;14.44;74.16
75088;HTU21D;63664;44.868;40.600;2023-04-15T06:30:54;14.58;73.89
75088;HTU21D;63664;44.868;40.600;2023-04-15T06:33:21;14.68;73.61
75088;HTU21D;63664;44.868;40.600;2023-04-15T06:35:47;14.85;73.32
75088;HTU21D;63664;44.868;40.600;2023-04-15T06:38:14;14.94;73.18
75088;HTU21D;63664;44.868;40.600;2023-04-15T06:40:41;15.09;72.86
75088;HTU21D;63664;44.868;40.600;2023-04-15T06:43:08;15.31;72.41
75088;HTU21D;63664;44.868;40.600;2023-04-15T06:45:34;15.45;72.12
75088;HTU21D;63664;44.868;40.600;2023-04-15T06:48:00;15.49;71.89
75088;HTU21D;63664;44.868;40.600;2023-04-15T06:50:27;15.57;71.84
75088;HTU21D;63664;44.868;40.600;2023-04-15T06:52:54;15.71;71.45
75088;HTU21D;63664;44.868;40.600;2023-04-15T06:55:21;15.90;71.07
75088;HTU21D;63664;44.868;40.600;2023-04-15T06:57:47;16.06;70.64
75088;HTU21D;63664;44.868;40.600;2023-04-15T07:00:13;16.13;70.13
75088;HTU21D;63664;44.868;40.600;2023-04-15T07:02:41;16.21;70.02
75088;HTU21D;63664;44.868;40.600;2023-04-15T07:05:07;16.34;69.65
75088;HTU21D;63664;44.868;40.600;2023-04-15T07:07:34;16.35;69.15
75088;HTU21D;63664;44.868;40.600;2023-04-15T07:10:01;16.44;69.11
75088;HTU21D;63664;44.868;40.600;2023-04-15T07:12:28;16.57;68.64
75088;HTU21D;63664;44.868;40.600;2023-04-15T07:14:55;16.72;68.52
75088;HTU21D;63664;44.868;40.600;2023-04-15T07:17:21;16.84;68.42
75088;HTU21D;63664;44.868;40.600;2023-04-15T07:19:47;17.01;67.90
75088;HTU21D;63664;44.868;40.600;2023-04-15T07:22:14;17.10;67.27
75088;HTU21D;63664;44.868;40.600;2023-04-15T07:24:40;17.28;66.81
75088;HTU21D;63664;44.868;40.600;2023-04-15T07:27:06;17.37;66.62
75088;HTU21D;63664;44.868;40.600;2023-04-15T07:29:33;17.50;66.33
75088;HTU21D;63664;44.868;40.600;2023-04-15T07:31:59;17.67;65.85
75088;HTU21D;63664;44.868;40.600;2023-04-15T07:34:26;17.89;65.14
75088;HTU21D;63664;44.868;40.600;2023-04-15T07:36:53;18.08;64.61
75088;HTU21D;63664;44.868;40.600;2023-04-15T07:39:20;18.26;64.09
75088;HTU21D;63664;44.868;40.600;2023-04-15T07:41:47;18.53;63.79
75088;HTU21D;63664;44.868;40.600;2023-04-15T07:44:14;18.70;62.89
75088;HTU21D;63664;44.868;40.600;2023-04-15T07:46:40;18.83;62.24
75088;HTU21D;63664;44.868;40.600;2023-04-15T07:49:07;18.99;62.31
75088;HTU21D;63664;44.868;40.600;2023-04-15T07:51:33;19.16;61.33
75088;HTU21D;63664;44.868;40.600;2023-04-15T07:53:59;19.30;61.25
75088;HTU21D;63664;44.868;40.600;2023-04-15T07:56:25;19.57;60.46
75088;HTU21D;63664;44.868;40.600;2023-04-15T07:58:52;19.73;59.61
75088;HTU21D;63664;44.868;40.600;2023-04-15T08:01:18;19.72;59.16
75088;HTU21D;63664;44.868;40.600;2023-04-15T08:03:45;19.61;59.16
75088;HTU21D;63664;44.868;40.600;2023-04-15T08:06:12;19.50;58.93
75088;HTU21D;63664;44.868;40.600;2023-04-15T08:08:38;19.36;58.37
75088;HTU21D;63664;44.868;40.600;2023-04-15T08:11:05;19.28;58.19
75088;HTU21D;63664;44.868;40.600;2023-04-15T08:13:31;19.30;58.24
75088;HTU21D;63664;44.868;40.600;2023-04-15T08:18:40;19.38;57.44
75088;HTU21D;63664;44.868;40.600;2023-04-15T08:21:07;19.53;56.87
75088;HTU21D;63664;44.868;40.600;2023-04-15T08:23:34;19.66;56.57
75088;HTU21D;63664;44.868;40.600;2023-04-15T08:26:00;19.73;56.23
75088;HTU21D;63664;44.868;40.600;2023-04-15T08:28:27;19.85;55.99
75088;HTU21D;63664;44.868;40.600;2023-04-15T08:30:53;19.99;55.03
75088;HTU21D;63664;44.868;40.600;2023-04-15T08:33:20;20.07;55.23
75088;HTU21D;63664;44.868;40.600;2023-04-15T08:35:47;20.09;54.41
75088;HTU21D;63664;44.868;40.600;2023-04-15T08:38:14;20.18;54.63
75088;HTU21D;63664;44.868;40.600;2023-04-15T08:40:43;20.36;54.12
75088;HTU21D;63664;44.868;40.600;2023-04-15T08:43:13;20.50;53.59
75088;HTU21D;63664;44.868;40.600;2023-04-15T08:45:41;20.66;53.05
75088;HTU21D;63664;44.868;40.600;2023-04-15T08:48:09;20.71;52.76
75088;HTU21D;63664;44.868;40.600;2023-04-15T08:50:41;20.73;52.86
75088;HTU21D;63664;44.868;40.600;2023-04-15T08:53:09;20.83;52.67
75088;HTU21D;63664;44.868;40.600;2023-04-15T08:55:49;21.01;52.14
75088;HTU21D;63664;44.868;40.600;2023-04-15T08:58:17;21.08;52.10
75088;HTU21D;63664;44.868;40.600;2023-04-15T09:00:44;21.11;51.86
75088;HTU21D;63664;44.868;40.600;2023-04-15T09:03:11;21.18;51.43
75088;HTU21D;63664;44.868;40.600;2023-04-15T09:05:37;21.14;51.14
75088;HTU21D;63664;44.868;40.600;2023-04-15T09:08:04;21.28;51.43
75088;HTU21D;63664;44.868;40.600;2023-04-15T09:10:31;21.55;50.95
75088;HTU21D;63664;44.868;40.600;2023-04-15T09:12:58;21.72;50.16
75088;HTU21D;63664;44.868;40.600;2023-04-15T09:15:25;21.78;49.73
75088;HTU21D;63664;44.868;40.600;2023-04-15T09:17:55;21.69;49.40
75088;HTU21D;63664;44.868;40.600;2023-04-15T09:20:22;21.61;49.23
75088;HTU21D;63664;44.868;40.600;2023-04-15T09:22:49;21.61;49.40
75088;HTU21D;63664;44.868;40.600;2023-04-15T09:27:51;21.73;48.66
75088;HTU21D;63664;44.868;40.600;2023-04-15T09:30:18;21.65;48.49
75088;HTU21D;63664;44.868;40.600;2023-04-15T09:32:59;21.73;47.95
75088;HTU21D;63664;44.868;40.600;2023-04-15T09:35:28;21.81;48.07
75088;HTU21D;63664;44.868;40.600;2023-04-15T09:38:23;21.91;48.12
75088;HTU21D;63664;44.868;40.600;2023-04-15T09:40:50;21.82;47.71
75088;HTU21D;63664;44.868;40.600;2023-04-15T09:43:17;21.82;47.92
75088;HTU21D;63664;44.868;40.600;2023-04-15T09:45:51;21.97;48.44
75088;HTU21D;63664;44.868;40.600;2023-04-15T09:48:21;22.08;48.82
75088;HTU21D;63664;44.868;40.600;2023-04-15T09:50:49;21.74;50.19
75088;HTU21D;63664;44.868;40.600;2023-04-15T09:53:17;21.58;50.83
75088;HTU21D;63664;44.868;40.600;2023-04-15T09:56:02;21.49;51.59
75088;HTU21D;63664;44.868;40.600;2023-04-15T09:58:30;21.52;51.33
75088;HTU21D;63664;44.868;40.600;2023-04-15T10:01:00;21.57;51.61
75088;HTU21D;63664;44.868;40.600;2023-04-15T10:03:29;21.57;51.66
75088;HTU21D;63664;44.868;40.600;2023-04-15T10:05:58;21.45;52.78
75088;HTU21D;63664;44.868;40.600;2023-04-15T10:08:27;21.57;52.90
75088;HTU21D;63664;44.868;40.600;2023-04-15T10:10:54;21.59;53.72
75088;HTU21D;63664;44.868;40.600;2023-04-15T10:13:26;21.54;54.00
75088;HTU21D;63664;44.868;40.600;2023-04-15T10:15:58;21.57;53.80
75088;HTU21D;63664;44.868;40.600;2023-04-15T10:18:26;21.44;54.41
75088;HTU21D;63664;44.868;40.600;2023-04-15T10:20:55;21.37;54.77
75088;HTU21D;63664;44.868;40.600;2023-04-15T10:23:22;21.27;54.80
75088;HTU21D;63664;44.868;40.600;2023-04-15T10:25:51;20.79;55.61
75088;HTU21D;63664;44.868;40.600;2023-04-15T10:28:20;20.37;56.55
75088;HTU21D;63664;44.868;40.600;2023-04-15T10:30:48;20.24;57.32
75088;HTU21D;63664;44.868;40.600;2023-04-15T10:33:17;20.24;57.58
75088;HTU21D;63664;44.868;40.600;2023-04-15T10:35:46;20.13;57.90
75088;HTU21D;63664;44.868;40.600;2023-04-15T10:38:36;20.05;57.85
75088;HTU21D;63664;44.868;40.600;2023-04-15T10:43:46;20.09;58.45
75088;HTU21D;63664;44.868;40.600;2023-04-15T10:46:17;20.00;58.05
75088;HTU21D;63664;44.868;40.600;2023-04-15T10:48:53;19.84;58.75
75088;HTU21D;63664;44.868;40.600;2023-04-15T10:51:29;19.81;59.16
75088;HTU21D;63664;44.868;40.600;2023-04-15T10:53:56;19.82;59.08
75088;HTU21D;63664;44.868;40.600;2023-04-15T10:56:23;19.96;58.86
75088;HTU21D;63664;44.868;40.600;2023-04-15T10:58:50;19.90;58.77
75088;HTU21D;63664;44.868;40.600;2023-04-15T11:01:19;19.84;59.06
75088;HTU21D;63664;44.868;40.600;2023-04-15T11:03:48;19.86;59.11
75088;HTU21D;63664;44.868;40.600;2023-04-15T11:06:15;19.62;59.51
75088;HTU21D;63664;44.868;40.600;2023-04-15T11:08:56;19.37;60.46
75088;HTU21D;63664;44.868;40.600;2023-04-15T11:14:27;18.73;62.31
75088;HTU21D;63664;44.868;40.600;2023-04-15T11:16:53;18.63;62.82
75088;HTU21D;63664;44.868;40.600;2023-04-15T11:19:20;18.51;62.89
75088;HTU21D;63664;44.868;40.600;2023-04-15T11:21:46;18.41;62.95
75088;HTU21D;63664;44.868;40.600;2023-04-15T11:24:26;18.34;63.79
75088;HTU21D;63664;44.868;40.600;2023-04-15T11:26:58;18.40;63.21
75088;HTU21D;63664;44.868;40.600;2023-04-15T11:29:30;18.21;63.49
75088;HTU21D;63664;44.868;40.600;2023-04-15T11:32:09;18.00;64.16
75088;HTU21D;63664;44.868;40.600;2023-04-15T11:34:36;17.91;64.53
75088;HTU21D;63664;44.868;40.600;2023-04-15T11:37:04;18.05;64.38
75088;HTU21D;63664;44.868;40.600;2023-04-15T11:39:31;18.23;64.04
75088;HTU21D;63664;44.868;40.600;2023-04-15T11:41:58;18.17;64.24
75088;HTU21D;63664;44.868;40.600;2023-04-15T11:44:25;18.24;64.24
75088;HTU21D;63664;44.868;40.600;2023-04-15T11:46:53;18.13;63.80
75088;HTU21D;63664;44.868;40.600;2023-04-15T11:49:32;17.85;64.47
75088;HTU21D;63664;44.868;40.600;2023-04-15T11:52:00;17.88;64.59
75088;HTU21D;63664;44.868;40.600;2023-04-15T11:54:26;17.81;64.95
75088;HTU21D;63664;44.868;40.600;2023-04-15T11:56:53;17.90;64.78
75088;HTU21D;63664;44.868;40.600;2023-04-15T11:59:21;17.83;64.62
75088;HTU21D;63664;44.868;40.600;2023-04-15T12:01:47;17.80;64.72
75088;HTU21D;63664;44.868;40.600;2023-04-15T12:04:17;17.76;65.08
75088;HTU21D;63664;44.868;40.600;2023-04-15T12:06:47;17.78;64.92
75088;HTU21D;63664;44.868;40.600;2023-04-15T12:09:15;17.88;64.49
75088;HTU21D;63664;44.868;40.600;2023-04-15T12:14:22;17.77;64.34
75088;HTU21D;63664;44.868;40.600;2023-04-15T12:16:51;17.76;64.47
75088;HTU21D;63664;44.868;40.600;2023-04-15T12:19:43;17.73;64.27
75088;HTU21D;63664;44.868;40.600;2023-04-15T12:22:15;17.74;64.56
75088;HTU21D;63664;44.868;40.600;2023-04-15T12:24:43;17.70;64.69
75088;HTU21D;63664;44.868;40.600;2023-04-15T12:27:16;17.64;65.00
75088;HTU21D;63664;44.868;40.600;2023-04-15T12:29:42;17.47;65.17
75088;HTU21D;63664;44.868;40.600;2023-04-15T12:32:16;17.08;65.88
75088;HTU21D;63664;44.868;40.600;2023-04-15T12:34:53;16.90;66.75
75088;HTU21D;63664;44.868;40.600;2023-04-15T12:37:20;16.91;66.53
75088;HTU21D;63664;44.868;40.600;2023-04-15T12:39:48;16.93;66.36
75088;HTU21D;63664;44.868;40.600;2023-04-15T12:42:16;16.92;66.28
75088;HTU21D;63664;44.868;40.600;2023-04-15T12:44:42;16.80;66.41
75088;HTU21D;63664;44.868;40.600;2023-04-15T12:47:10;16.74;66.85
75088;HTU21D;63664;44.868;40.600;2023-04-15T12:49:37;16.76;67.23
75088;HTU21D;63664;44.868;40.600;2023-04-15T12:52:07;16.67;67.19
75088;HTU21D;63664;44.868;40.600;2023-04-15T12:54:33;16.56;67.39
75088;HTU21D;63664;44.868;40.600;2023-04-15T12:57:01;16.39;67.56
75088;HTU21D;63664;44.868;40.600;2023-04-15T12:59:28;16.21;68.20
75088;HTU21D;63664;44.868;40.600;2023-04-15T13:01:54;16.04;68.46
75088;HTU21D;63664;44.868;40.600;2023-04-15T13:04:20;15.92;68.74
75088;HTU21D;63664;44.868;40.600;2023-04-15T13:06:47;15.83;68.94
75088;HTU21D;63664;44.868;40.600;2023-04-15T13:09:14;15.84;69.10
75088;HTU21D;63664;44.868;40.600;2023-04-15T13:11:40;15.93;69.05
75088;HTU21D;63664;44.868;40.600;2023-04-15T13:14:08;16.03;68.55
75088;HTU21D;63664;44.868;40.600;2023-04-15T13:16:36;16.03;68.51
75088;HTU21D;63664;44.868;40.600;2023-04-15T13:19:02;15.91;68.87
75088;HTU21D;63664;44.868;40.600;2023-04-15T13:21:30;15.82;69.46
75088;HTU21D;63664;44.868;40.600;2023-04-15T13:24:00;15.89;69.29
75088;HTU21D;63664;44.868;40.600;2023-04-15T13:26:27;15.77;69.32
75088;HTU21D;63664;44.868;40.600;2023-04-15T13:28:54;15.68;69.47
75088;HTU21D;63664;44.868;40.600;2023-04-15T13:31:21;15.60;69.62
75088;HTU21D;63664;44.868;40.600;2023-04-15T13:33:47;15.52;69.92
75088;HTU21D;63664;44.868;40.600;2023-04-15T13:36:13;15.34;70.16
75088;HTU21D;63664;44.868;40.600;2023-04-15T13:38:39;15.13;70.74
75088;HTU21D;63664;44.868;40.600;2023-04-15T13:41:05;15.06;71.33
75088;HTU21D;63664;44.868;40.600;2023-04-15T13:43:32;15.15;71.14
75088;HTU21D;63664;44.868;40.600;2023-04-15T13:45:59;15.19;70.87
75088;HTU21D;63664;44.868;40.600;2023-04-15T13:48:26;15.18;70.76
75088;HTU21D;63664;44.868;40.600;2023-04-15T13:50:52;15.14;70.99
75088;HTU21D;63664;44.868;40.600;2023-04-15T13:53:19;15.22;70.81
75088;HTU21D;63664;44.868;40.600;2023-04-15T13:55:45;15.25;70.79
75088;HTU21D;63664;44.868;40.600;2023-04-15T13:58:11;15.25;70.51
75088;HTU21D;63664;44.868;40.600;2023-04-15T14:00:38;15.12;70.59
75088;HTU21D;63664;44.868;40.600;2023-04-15T14:03:04;15.06;70.74
75088;HTU21D;63664;44.868;40.600;2023-04-15T14:05:32;15.03;70.74
75088;HTU21D;63664;44.868;40.600;2023-04-15T14:08:04;14.99;70.91
75088;HTU21D;63664;44.868;40.600;2023-04-15T14:10:30;15.00;70.88
75088;HTU21D;63664;44.868;40.600;2023-04-15T14:12:56;14.97;70.88
75088;HTU21D;63664;44.868;40.600;2023-04-15T14:15:23;15.01;70.70
75088;HTU21D;63664;44.868;40.600;2023-04-15T14:17:49;14.88;70.77
75088;HTU21D;63664;44.868;40.600;2023-04-15T14:20:15;14.75;71.13
75088;HTU21D;63664;44.868;40.600;2023-04-15T14:22:42;14.80;71.13
75088;HTU21D;63664;44.868;40.600;2023-04-15T14:25:08;14.75;71.09
75088;HTU21D;63664;44.868;40.600;2023-04-15T14:27:35;14.60;71.42
75088;HTU21D;63664;44.868;40.600;2023-04-15T14:30:01;14.49;71.72
75088;HTU21D;63664;44.868;40.600;2023-04-15T14:32:27;14.42;71.92
75088;HTU21D;63664;44.868;40.600;2023-04-15T14:34:54;14.33;72.12
75088;HTU21D;63664;44.868;40.600;2023-04-15T14:37:20;14.20;72.46
75088;HTU21D;63664;44.868;40.600;2023-04-15T14:39:46;14.15;72.61
75088;HTU21D;63664;44.868;40.600;2023-04-15T14:42:13;14.14;72.64
75088;HTU21D;63664;44.868;40.600;2023-04-15T14:44:39;14.20;72.36
75088;HTU21D;63664;44.868;40.600;2023-04-15T14:47:05;14.10;72.57
75088;HTU21D;63664;44.868;40.600;2023-04-15T14:49:32;13.98;72.87
75088;HTU21D;63664;44.868;40.600;2023-04-15T14:51:58;13.85;73.21
75088;HTU21D;63664;44.868;40.600;2023-04-15T14:54:24;13.76;73.60
75088;HTU21D;63664;44.868;40.600;2023-04-15T14:56:50;13.75;73.66
75088;HTU21D;63664;44.868;40.600;2023-04-15T14:59:17;13.74;73.61
75088;HTU21D;63664;44.868;40.600;2023-04-15T15:01:43;13.70;73.57
75088;HTU21D;63664;44.868;40.600;2023-04-15T15:04:09;13.63;73.80
75088;HTU21D;63664;44.868;40.600;2023-04-15T15:06:36;13.48;74.14
75088;HTU21D;63664;44.868;40.600;2023-04-15T15:09:03;13.34;74.43
75088;HTU21D;63664;44.868;40.600;2023-04-15T15:11:29;13.23;74.63
75088;HTU21D;63664;44.868;40.600;2023-04-15T15:13:56;13.14;74.71
75088;HTU21D;63664;44.868;40.600;2023-04-15T15:16:24;13.11;74.84
75088;HTU21D;63664;44.868;40.600;2023-04-15T15:18:50;13.08;74.75
75088;HTU21D;63664;44.868;40.600;2023-04-15T15:21:16;13.01;74.92